createdAt,value
2019-02-24T00:01:48.003Z,80.70
2019-02-24T00:04:18.434Z,80.80
2019-02-24T00:06:48.922Z,80.90
2019-02-24T00:09:19.383Z,80.90
2019-02-24T00:11:49.849Z,80.70
2019-02-24T00:14:20.309Z,80.70
2019-02-24T00:16:50.896Z,80.90
2019-02-24T00:19:21.389Z,81.00
2019-02-24T00:21:51.841Z,81.30
2019-02-24T00:24:22.295Z,81.50
2019-02-24T00:26:52.875Z,81.30
2019-02-24T00:29:23.456Z,81.30
2019-02-24T00:31:53.913Z,81.30
2019-02-24T00:34:24.482Z,81.30
2019-02-24T00:36:54.956Z,81.30
2019-02-24T00:39:25.531Z,81.50
2019-02-24T00:41:56.059Z,81.30
2019-02-24T00:44:26.646Z,81.60
2019-02-24T00:46:57.073Z,82.00
2019-02-24T00:49:27.558Z,82.00
2019-02-24T00:51:58.024Z,82.20
2019-02-24T00:54:28.488Z,82.50
2019-02-24T00:56:58.970Z,82.50
2019-02-24T00:59:29.485Z,82.60
2019-02-24T01:02:00.023Z,82.50
2019-02-24T01:04:30.651Z,82.60
2019-02-24T01:07:01.174Z,82.50
2019-02-24T01:09:31.634Z,82.70
2019-02-24T01:12:02.072Z,82.70
2019-02-24T01:14:32.564Z,82.90
2019-02-24T01:17:03.226Z,82.90
2019-02-24T01:19:33.668Z,82.70
2019-02-24T01:22:04.150Z,82.70
2019-02-24T01:24:34.592Z,82.50
2019-02-24T01:27:05.059Z,82.00
2019-02-24T01:29:35.511Z,82.00
2019-02-24T01:32:06.040Z,82.30
2019-02-24T01:34:36.471Z,82.30
2019-02-24T01:37:06.934Z,82.40
2019-02-24T01:39:37.404Z,82.40
2019-02-24T01:42:07.846Z,82.50
2019-02-24T01:44:38.327Z,82.60
2019-02-24T01:47:08.780Z,82.60
2019-02-24T01:49:39.257Z,82.60
2019-02-24T01:52:09.716Z,82.90
2019-02-24T01:54:40.205Z,83.00
2019-02-24T01:57:10.638Z,83.10
2019-02-24T01:59:41.117Z,83.10
2019-02-24T02:02:11.570Z,83.10
2019-02-24T02:04:42.048Z,83.30
2019-02-24T02:07:12.633Z,83.40
2019-02-24T02:09:43.074Z,83.50
2019-02-24T02:12:13.550Z,83.90
2019-02-24T02:14:43.996Z,83.80
2019-02-24T02:17:14.470Z,84.00
2019-02-24T02:19:44.958Z,84.00
2019-02-24T02:22:15.434Z,84.20
2019-02-24T02:24:45.894Z,84.30
2019-02-24T02:27:16.368Z,84.40
2019-02-24T02:29:46.804Z,84.50
2019-02-24T02:32:17.305Z,84.60
2019-02-24T02:34:47.780Z,84.50
2019-02-24T02:37:18.221Z,84.70
2019-02-24T02:39:48.692Z,84.90
2019-02-24T02:42:19.137Z,85.10
2019-02-24T02:44:49.616Z,85.30
2019-02-24T02:47:20.085Z,85.50
2019-02-24T02:49:50.543Z,85.60
2019-02-24T02:52:21.058Z,86.40
2019-02-24T02:54:51.548Z,85.60
2019-02-24T02:57:22.130Z,85.70
2019-02-24T02:59:52.613Z,85.60
2019-02-24T03:02:24.683Z,86.40
2019-02-24T03:04:55.496Z,85.60
2019-02-24T03:07:47.794Z,86.00
2019-02-24T03:10:18.295Z,86.00
2019-02-24T03:12:48.770Z,86.10
2019-02-24T03:15:19.223Z,86.30
2019-02-24T03:17:49.695Z,86.30
2019-02-24T03:20:20.169Z,86.80
2019-02-24T03:22:50.586Z,87.10
2019-02-24T03:25:21.071Z,86.70
2019-02-24T03:27:51.596Z,87.00
2019-02-24T03:30:22.168Z,87.20
2019-02-24T03:32:52.717Z,87.50
2019-02-24T03:35:23.251Z,87.70
2019-02-24T03:37:53.695Z,87.60
2019-02-24T03:40:24.118Z,87.70
2019-02-24T03:42:54.668Z,87.70
2019-02-24T03:45:25.127Z,87.30
2019-02-24T03:47:55.605Z,87.30
2019-02-24T03:50:26.055Z,87.40
2019-02-24T03:52:56.526Z,87.60
2019-02-24T03:55:26.991Z,87.80
2019-02-24T03:57:57.566Z,87.70
2019-02-24T04:00:27.993Z,87.60
2019-02-24T04:02:58.451Z,87.70
2019-02-24T04:05:28.911Z,87.50
2019-02-24T04:07:59.341Z,87.30
2019-02-24T04:10:29.810Z,87.40
2019-02-24T04:13:00.282Z,87.50
2019-02-24T04:15:30.744Z,87.70
2019-02-24T04:18:02.207Z,87.70
2019-02-24T04:20:32.673Z,87.70
2019-02-24T04:23:03.098Z,87.70
2019-02-24T04:25:33.671Z,87.90
2019-02-24T04:28:04.153Z,87.90
2019-02-24T04:30:34.575Z,88.10
2019-02-24T04:33:05.141Z,88.10
2019-02-24T04:35:35.589Z,88.10
2019-02-24T04:38:06.055Z,87.90
2019-02-24T04:40:36.518Z,88.30
2019-02-24T04:43:06.967Z,88.20
2019-02-24T04:45:37.458Z,88.10
2019-02-24T04:48:07.907Z,88.20
2019-02-24T04:50:38.488Z,88.20
2019-02-24T04:53:08.914Z,88.30
2019-02-24T04:55:39.371Z,88.50
2019-02-24T04:58:09.817Z,88.60
2019-02-24T05:00:40.279Z,88.60
2019-02-24T05:03:10.743Z,88.80
2019-02-24T05:05:41.193Z,88.90
2019-02-24T05:08:11.666Z,88.90
2019-02-24T05:10:42.081Z,89.00
2019-02-24T05:13:12.595Z,88.90
2019-02-24T05:15:43.100Z,88.80
2019-02-24T05:18:13.561Z,88.70
2019-02-24T05:20:44.015Z,88.80
2019-02-24T05:23:14.495Z,89.00
2019-02-24T05:25:44.976Z,88.90
2019-02-24T05:28:15.421Z,89.00
2019-02-24T05:30:45.853Z,89.10
2019-02-24T05:33:16.302Z,89.20
2019-02-24T05:35:46.740Z,89.40
2019-02-24T05:38:17.203Z,89.20
2019-02-24T05:40:47.645Z,89.20
2019-02-24T05:43:18.104Z,89.20
2019-02-24T05:45:48.595Z,89.20
2019-02-24T05:48:19.061Z,89.20
2019-02-24T05:50:49.529Z,89.20
2019-02-24T05:53:19.970Z,89.40
2019-02-24T05:55:50.424Z,89.40
2019-02-24T05:58:21.060Z,89.40
2019-02-24T06:00:51.614Z,89.40
2019-02-24T06:03:22.139Z,89.50
2019-02-24T06:05:52.676Z,89.40
2019-02-24T06:08:23.125Z,89.40
2019-02-24T06:10:53.675Z,89.40
2019-02-24T06:13:24.200Z,89.60
2019-02-24T06:15:54.815Z,89.50
2019-02-24T06:18:25.374Z,89.70
2019-02-24T06:20:55.816Z,89.80
2019-02-24T06:23:26.251Z,89.70
2019-02-24T06:25:56.774Z,89.80
2019-02-24T06:28:27.416Z,89.70
2019-02-24T06:30:57.854Z,90.00
2019-02-24T06:33:28.351Z,90.10
2019-02-24T06:35:58.822Z,90.30
2019-02-24T06:38:29.354Z,90.30
2019-02-24T06:41:00.022Z,90.30
2019-02-24T06:43:30.579Z,90.40
2019-02-24T06:46:01.057Z,90.60
2019-02-24T06:48:31.510Z,90.60
2019-02-24T06:51:04.616Z,90.60
2019-02-24T06:53:35.152Z,90.60
2019-02-24T06:56:05.723Z,90.60
2019-02-24T06:58:36.214Z,90.60
2019-02-24T07:01:07.088Z,90.70
2019-02-24T07:03:37.566Z,90.70
2019-02-24T07:06:08.042Z,90.90
2019-02-24T07:08:38.547Z,91.10
2019-02-24T07:11:09.102Z,91.10
2019-02-24T07:13:39.562Z,91.10
2019-02-24T07:16:10.069Z,90.60
2019-02-24T07:18:40.723Z,90.40
2019-02-24T07:21:11.312Z,90.20
2019-02-24T07:23:41.804Z,90.10
2019-02-24T07:26:12.395Z,90.20
2019-02-24T07:28:42.875Z,90.40
2019-02-24T07:31:13.316Z,90.60
2019-02-24T07:33:43.855Z,90.80
2019-02-24T07:36:17.001Z,90.90
2019-02-24T07:38:48.058Z,90.80
2019-02-24T07:41:18.541Z,90.90
2019-02-24T07:43:49.146Z,91.00
2019-02-24T07:46:19.672Z,90.70
2019-02-24T07:48:50.255Z,90.90
2019-02-24T07:51:21.793Z,90.80
2019-02-24T07:53:52.304Z,90.70
2019-02-24T07:56:22.929Z,90.90
2019-02-24T07:58:53.510Z,90.90
2019-02-24T08:01:23.985Z,90.90
2019-02-24T08:03:54.611Z,90.90
2019-02-24T08:06:25.235Z,91.00
2019-02-24T08:08:55.814Z,91.10
2019-02-24T08:11:26.274Z,90.90
2019-02-24T08:13:56.726Z,90.70
2019-02-24T08:16:27.200Z,90.80
2019-02-24T08:18:57.640Z,90.70
2019-02-24T08:21:28.177Z,90.50
2019-02-24T08:23:58.653Z,90.30
2019-02-24T08:26:29.123Z,90.10
2019-02-24T08:28:59.586Z,89.70
2019-02-24T08:31:30.036Z,88.80
2019-02-24T08:34:00.504Z,88.90
2019-02-24T08:36:31.006Z,89.20
2019-02-24T08:39:01.483Z,88.70
2019-02-24T08:41:31.916Z,88.40
2019-02-24T08:44:02.370Z,87.90
2019-02-24T08:46:32.822Z,87.40
2019-02-24T08:49:03.361Z,87.30
2019-02-24T08:51:33.845Z,87.50
2019-02-24T08:54:04.322Z,87.50
2019-02-24T08:56:34.758Z,87.50
2019-02-24T08:59:05.238Z,87.40
2019-02-24T09:01:35.681Z,86.80
2019-02-24T09:04:06.130Z,86.00
2019-02-24T09:06:36.610Z,85.70
2019-02-24T09:09:07.521Z,84.70
2019-02-24T09:11:38.005Z,83.40
2019-02-24T09:14:08.492Z,82.40
2019-02-24T09:16:38.973Z,81.70
2019-02-24T09:19:09.584Z,80.80
2019-02-24T09:21:40.029Z,79.30
2019-02-24T09:24:10.557Z,78.90
2019-02-24T09:26:40.995Z,78.10
2019-02-24T09:29:11.512Z,77.90
2019-02-24T09:31:41.976Z,78.20
2019-02-24T09:34:12.455Z,76.00
2019-02-24T09:36:43.026Z,74.90
2019-02-24T09:39:13.518Z,75.00
2019-02-24T09:41:44.011Z,74.90
2019-02-24T09:44:14.529Z,74.40
2019-02-24T09:46:45.023Z,73.60
2019-02-24T09:49:15.578Z,72.60
2019-02-24T09:51:46.162Z,71.00
2019-02-24T09:54:16.618Z,70.30
2019-02-24T09:56:47.177Z,70.10
2019-02-24T09:59:17.640Z,69.40
2019-02-24T10:01:48.237Z,69.30
2019-02-24T10:04:18.705Z,67.90
2019-02-24T10:06:49.319Z,66.90
2019-02-24T10:09:19.821Z,65.50
2019-02-24T10:11:50.369Z,64.50
2019-02-24T10:14:20.909Z,63.80
2019-02-24T10:16:51.558Z,63.30
2019-02-24T10:19:22.511Z,64.10
2019-02-24T10:21:53.034Z,63.40
2019-02-24T10:24:23.643Z,63.30
2019-02-24T10:26:54.187Z,63.00
2019-02-24T10:29:24.830Z,61.50
2019-02-24T10:31:55.427Z,60.30
2019-02-24T10:34:25.991Z,59.40
2019-02-24T10:37:06.613Z,58.60
2019-02-24T10:39:37.186Z,58.90
2019-02-24T10:42:07.725Z,58.60
2019-02-24T10:44:38.267Z,59.20
2019-02-24T10:47:08.893Z,58.10
2019-02-24T10:49:39.458Z,57.90
2019-02-24T10:52:10.060Z,57.10
2019-02-24T10:54:40.524Z,57.70
2019-02-24T10:57:13.076Z,58.00
2019-02-24T10:59:43.673Z,56.40
2019-02-24T11:02:14.223Z,57.60
2019-02-24T11:04:44.738Z,57.30
2019-02-24T11:07:15.272Z,56.90
2019-02-24T11:09:45.880Z,56.90
2019-02-24T11:12:16.455Z,56.40
2019-02-24T11:14:47.036Z,55.70
2019-02-24T11:17:17.649Z,55.30
2019-02-24T11:19:48.273Z,54.70
2019-02-24T11:22:18.812Z,54.00
2019-02-24T11:24:49.335Z,55.00
2019-02-24T11:27:19.909Z,54.80
2019-02-24T11:29:50.431Z,54.80
2019-02-24T11:32:21.069Z,54.70
2019-02-24T11:34:51.815Z,54.30
2019-02-24T11:37:22.365Z,53.90
2019-02-24T11:39:52.980Z,53.10
2019-02-24T11:42:23.651Z,53.00
2019-02-24T11:44:54.205Z,52.70
2019-02-24T11:47:24.921Z,51.50
2019-02-24T11:49:55.627Z,51.20
2019-02-24T11:52:26.149Z,50.40
2019-02-24T11:54:56.745Z,50.40
2019-02-24T11:57:27.307Z,50.50
2019-02-24T12:00:59.730Z,49.50
2019-02-24T12:04:28.917Z,49.30
2019-02-24T12:07:37.457Z,48.60
2019-02-24T12:09:47.173Z,49.90
2019-02-24T12:12:17.697Z,49.60
2019-02-24T12:14:48.294Z,48.80
2019-02-24T12:17:18.810Z,48.10
2019-02-24T12:19:49.385Z,47.90
2019-02-24T12:22:19.891Z,47.50
2019-02-24T12:24:50.452Z,47.70
2019-02-24T12:27:21.060Z,47.30
2019-02-24T12:29:51.833Z,46.80
2019-02-24T12:32:22.294Z,46.30
2019-02-24T12:34:52.948Z,47.00
2019-02-24T12:37:23.440Z,45.90
2019-02-24T12:39:53.929Z,46.20
2019-02-24T12:42:24.391Z,45.80
2019-02-24T12:44:54.963Z,44.90
2019-02-24T12:47:25.679Z,46.00
2019-02-24T12:50:03.013Z,45.10
2019-02-24T12:52:28.368Z,44.80
2019-02-24T12:54:58.916Z,44.80
2019-02-24T12:57:29.479Z,44.80
2019-02-24T12:59:59.979Z,44.20
2019-02-24T13:02:30.491Z,44.80
2019-02-24T13:05:01.026Z,44.80
2019-02-24T13:07:31.500Z,43.50
2019-02-24T13:10:02.141Z,43.70
2019-02-24T13:12:33.632Z,42.50
2019-02-24T13:15:04.139Z,43.30
2019-02-24T13:17:34.589Z,42.60
2019-02-24T13:20:05.392Z,41.10
2019-02-24T13:22:35.937Z,41.40
2019-02-24T13:25:07.050Z,41.90
2019-02-24T13:27:37.496Z,42.60
2019-02-24T13:30:08.350Z,42.90
2019-02-24T13:32:38.818Z,42.00
2019-02-24T13:35:09.533Z,42.90
2019-02-24T13:37:40.036Z,42.10
2019-02-24T13:40:10.721Z,42.40
2019-02-24T13:42:41.226Z,41.60
2019-02-24T13:45:13.712Z,42.40
2019-02-24T13:47:44.189Z,42.40
2019-02-24T13:50:15.797Z,42.20
2019-02-24T13:52:46.484Z,41.10
2019-02-24T13:55:17.031Z,41.50
2019-02-24T13:57:47.510Z,41.90
2019-02-24T14:00:18.185Z,40.80
2019-02-24T14:02:48.704Z,40.40
2019-02-24T14:05:19.172Z,39.90
2019-02-24T14:07:49.737Z,40.50
2019-02-24T14:10:20.231Z,40.30
2019-02-24T14:12:50.728Z,40.30
2019-02-24T14:15:21.163Z,39.80
2019-02-24T14:17:51.829Z,40.00
2019-02-24T14:20:22.290Z,38.90
2019-02-24T14:22:53.321Z,38.90
2019-02-24T14:25:23.859Z,38.40
2019-02-24T14:27:54.443Z,38.00
2019-02-24T14:30:24.895Z,38.30
2019-02-24T14:32:55.558Z,38.60
2019-02-24T14:35:26.083Z,38.40
2019-02-24T14:37:56.580Z,39.00
2019-02-24T14:40:27.047Z,38.50
2019-02-24T14:42:57.489Z,38.50
2019-02-24T14:45:28.049Z,38.60
2019-02-24T14:47:58.509Z,38.70
2019-02-24T14:50:29.006Z,38.50
2019-02-24T14:52:59.617Z,38.30
2019-02-24T14:55:30.080Z,38.40
2019-02-24T14:58:00.520Z,38.90
2019-02-24T15:00:31.005Z,38.60
2019-02-24T15:03:01.453Z,39.20
2019-02-24T15:05:31.921Z,38.90
2019-02-24T15:08:02.355Z,39.20
2019-02-24T15:10:32.833Z,39.10
2019-02-24T15:13:03.281Z,39.20
2019-02-24T15:15:33.876Z,39.10
2019-02-24T15:18:04.445Z,39.00
2019-02-24T15:20:34.900Z,39.20
2019-02-24T15:23:07.645Z,39.30
2019-02-24T15:26:02.590Z,38.30
2019-02-24T15:28:33.061Z,38.70
2019-02-24T15:31:03.554Z,37.80
2019-02-24T15:33:34.032Z,38.00
2019-02-24T15:36:04.509Z,37.40
2019-02-24T15:38:34.962Z,37.30
2019-02-24T15:41:05.504Z,37.70
2019-02-24T15:43:35.986Z,38.30
2019-02-24T15:46:06.631Z,38.50
2019-02-24T15:48:39.419Z,38.80
2019-02-24T15:51:09.867Z,39.20
2019-02-24T15:53:40.390Z,39.70
2019-02-24T15:56:10.908Z,39.30
2019-02-24T15:58:41.347Z,39.20
2019-02-24T16:01:11.888Z,39.00
2019-02-24T16:03:42.735Z,39.20
2019-02-24T16:06:13.209Z,38.90
2019-02-24T16:08:43.642Z,38.10
2019-02-24T16:11:14.098Z,38.00
2019-02-24T16:13:44.578Z,38.20
2019-02-24T16:16:15.070Z,38.10
2019-02-24T16:18:45.610Z,38.40
2019-02-24T16:21:16.111Z,38.10
2019-02-24T16:23:46.588Z,38.30
2019-02-24T16:26:17.039Z,38.30
2019-02-24T16:28:47.527Z,38.50
2019-02-24T16:31:17.970Z,38.50
2019-02-24T16:33:48.433Z,38.60
2019-02-24T16:36:21.832Z,38.30
2019-02-24T16:38:52.259Z,38.50
2019-02-24T16:41:22.969Z,38.40
2019-02-24T16:43:53.417Z,38.60
2019-02-24T16:46:23.938Z,38.80
2019-02-24T16:48:54.467Z,39.50
2019-02-24T16:51:25.005Z,39.50
2019-02-24T16:53:55.628Z,39.70
2019-02-24T16:56:26.078Z,39.90
2019-02-24T16:58:56.637Z,39.90
2019-02-24T17:01:27.557Z,40.10
2019-02-24T17:03:58.094Z,40.20
2019-02-24T17:06:28.628Z,40.10
2019-02-24T17:09:02.550Z,39.90
2019-02-24T17:11:31.422Z,39.80
2019-02-24T17:14:01.886Z,40.10
2019-02-24T17:16:32.356Z,40.30
2019-02-24T17:19:02.925Z,40.80
2019-02-24T17:21:33.382Z,40.40
2019-02-24T17:24:03.842Z,40.30
2019-02-24T17:26:34.337Z,40.60
2019-02-24T17:29:04.944Z,40.70
2019-02-24T17:31:35.434Z,40.80
2019-02-24T17:34:05.874Z,41.10
2019-02-24T17:36:36.399Z,41.00
2019-02-24T17:39:08.510Z,41.10
2019-02-24T17:41:38.944Z,41.10
2019-02-24T17:44:09.476Z,41.20
2019-02-24T17:46:39.942Z,40.90
2019-02-24T17:49:10.374Z,41.10
2019-02-24T17:51:40.962Z,41.20
2019-02-24T17:54:11.580Z,41.30
2019-02-24T17:56:42.062Z,41.30
2019-02-24T17:59:12.533Z,41.40
2019-02-24T18:01:42.976Z,41.40
2019-02-24T18:04:13.558Z,41.60
2019-02-24T18:06:44.028Z,41.80
2019-02-24T18:09:14.515Z,41.90
2019-02-24T18:11:45.008Z,42.00
2019-02-24T18:14:15.574Z,42.10
2019-02-24T18:16:46.139Z,42.20
2019-02-24T18:19:16.585Z,42.10
2019-02-24T18:21:47.065Z,42.10
2019-02-24T18:24:17.534Z,42.00
2019-02-24T18:26:48.088Z,42.10
2019-02-24T18:29:19.568Z,41.90
2019-02-24T18:31:50.151Z,42.00
2019-02-24T18:34:20.641Z,42.10
2019-02-24T18:36:51.212Z,42.40
2019-02-24T18:39:21.808Z,42.20
2019-02-24T18:41:52.316Z,42.60
2019-02-24T18:44:22.959Z,42.10
2019-02-24T18:46:53.612Z,41.40
2019-02-24T18:49:25.775Z,41.30
2019-02-24T18:51:56.406Z,41.00
2019-02-24T18:54:34.496Z,40.90
2019-02-24T18:56:59.295Z,41.10
2019-02-24T18:59:30.823Z,42.00
2019-02-24T19:02:01.349Z,41.90
2019-02-24T19:04:31.827Z,41.40
2019-02-24T19:07:02.300Z,41.00
2019-02-24T19:09:32.836Z,41.30
2019-02-24T19:12:03.310Z,41.60
2019-02-24T19:14:33.744Z,41.70
2019-02-24T19:17:04.187Z,41.90
2019-02-24T19:19:34.703Z,42.30
2019-02-24T19:22:07.141Z,42.50
2019-02-24T19:24:37.385Z,42.50
2019-02-24T19:27:07.825Z,42.60
2019-02-24T19:29:38.319Z,42.80
2019-02-24T19:32:08.745Z,42.70
2019-02-24T19:34:39.278Z,42.70
2019-02-24T19:37:09.712Z,43.10
2019-02-24T19:39:40.186Z,43.40
2019-02-24T19:42:10.658Z,43.60
2019-02-24T19:44:41.182Z,43.80
2019-02-24T19:47:11.615Z,43.80
2019-02-24T19:49:42.078Z,43.80
2019-02-24T19:52:12.555Z,43.70
2019-02-24T19:54:43.344Z,43.40
2019-02-24T19:57:13.769Z,43.40
2019-02-24T19:59:44.219Z,43.40
2019-02-24T20:02:14.682Z,43.70
2019-02-24T20:04:45.183Z,43.80
2019-02-24T20:07:15.624Z,43.90
2019-02-24T20:09:46.099Z,43.80
2019-02-24T20:12:16.573Z,43.90
2019-02-24T20:14:46.992Z,44.00
2019-02-24T20:17:17.472Z,44.20
2019-02-24T20:19:47.998Z,44.30
2019-02-24T20:22:18.515Z,44.50
2019-02-24T20:24:49.064Z,44.70
2019-02-24T20:27:19.643Z,44.90
2019-02-24T20:29:50.158Z,44.90
2019-02-24T20:32:20.632Z,45.10
2019-02-24T20:34:52.301Z,45.20
2019-02-24T20:37:22.920Z,45.60
2019-02-24T20:39:53.500Z,45.70
2019-02-24T20:42:23.948Z,45.70
2019-02-24T20:44:56.519Z,46.10
2019-02-24T20:47:26.976Z,46.00
2019-02-24T20:49:57.451Z,45.90
2019-02-24T20:52:27.890Z,45.90
2019-02-24T20:54:58.413Z,46.10
2019-02-24T20:57:29.692Z,46.30
2019-02-24T21:00:00.352Z,46.70
2019-02-24T21:02:30.856Z,46.80
2019-02-24T21:05:01.326Z,46.90
2019-02-24T21:07:31.809Z,46.90
2019-02-24T21:10:02.271Z,46.90
2019-02-24T21:12:32.697Z,47.10
2019-02-24T21:15:03.182Z,47.20
2019-02-24T21:17:33.631Z,47.10
2019-02-24T21:20:04.888Z,47.20
2019-02-24T21:22:35.331Z,47.20
2019-02-24T21:25:06.373Z,47.10
2019-02-24T21:27:36.833Z,47.10
2019-02-24T21:30:08.413Z,47.20
2019-02-24T21:32:38.874Z,47.30
2019-02-24T21:35:09.619Z,47.40
2019-02-24T21:37:40.053Z,47.50
2019-02-24T21:40:11.461Z,47.50
2019-02-24T21:42:41.982Z,47.90
2019-02-24T21:45:15.589Z,48.00
2019-02-24T21:47:46.055Z,48.20
2019-02-24T21:50:16.993Z,48.00
2019-02-24T21:52:47.469Z,47.80
2019-02-24T21:55:18.191Z,47.80
2019-02-24T21:57:48.652Z,47.70
2019-02-24T22:00:21.362Z,47.80
2019-02-24T22:02:52.137Z,48.50
2019-02-24T22:05:22.740Z,49.00
2019-02-24T22:07:53.196Z,48.80
2019-02-24T22:10:23.914Z,48.80
2019-02-24T22:12:54.467Z,48.40
2019-02-24T22:15:24.971Z,48.50
2019-02-24T22:17:55.531Z,48.90
2019-02-24T22:20:25.981Z,49.00
2019-02-24T22:22:56.434Z,49.10
2019-02-24T22:25:26.932Z,49.90
2019-02-24T22:27:57.364Z,49.60
2019-02-24T22:30:27.843Z,49.50
2019-02-24T22:32:58.337Z,49.50
2019-02-24T22:35:28.752Z,49.70
2019-02-24T22:37:59.220Z,49.40
2019-02-24T22:40:29.676Z,49.30
2019-02-24T22:43:00.167Z,49.70
2019-02-24T22:45:30.622Z,50.00
2019-02-24T22:48:03.060Z,50.20
2019-02-24T22:50:33.263Z,50.30
2019-02-24T22:53:03.733Z,50.40
2019-02-24T22:55:34.160Z,50.70
2019-02-24T22:58:04.649Z,50.60
2019-02-24T23:00:58.690Z,50.60
2019-02-24T23:03:33.112Z,50.90
2019-02-24T23:06:03.549Z,50.90
2019-02-24T23:08:34.049Z,50.70
2019-02-24T23:11:04.514Z,50.70
2019-02-24T23:13:35.076Z,50.60
2019-02-24T23:16:05.575Z,50.70
2019-02-24T23:18:36.129Z,50.80
2019-02-24T23:21:06.579Z,50.90
2019-02-24T23:23:36.994Z,51.10
2019-02-24T23:26:07.476Z,51.20
2019-02-24T23:28:37.915Z,51.20
2019-02-24T23:31:08.372Z,51.10
2019-02-24T23:33:38.807Z,51.10
2019-02-24T23:36:09.261Z,51.40
2019-02-24T23:38:39.728Z,51.80
2019-02-24T23:41:10.875Z,52.00
2019-02-24T23:43:41.304Z,52.00
2019-02-24T23:46:11.847Z,52.10
2019-02-24T23:48:42.300Z,52.00
2019-02-24T23:51:12.779Z,52.00
2019-02-24T23:53:43.234Z,51.60
2019-02-24T23:56:13.698Z,51.60
2019-02-24T23:58:44.169Z,51.60
